Time;durP1;ratioP1;P1;durP2;ratioP2;P2;SDS_P1;SDS_P2;PMS_P1;PMS_P2;Temp;Humidity;BMP_temperature;BMP_pressure;BME280_temperature;BME280_humidity;BME280_pressure;Samples;Min_cycle;Max_cycle;Signal;HPM_P1;HPM_P2
2021/06/30 00:00:45;;;;;;;10.00;5.57;;;;;;;-139.48;100.00;61774.03;5000752;28;20104;-68
2021/06/30 00:03:29;;;;;;;9.20;5.65;;;;;;;-139.48;100.00;61774.03;4986391;28;20458;-68
2021/06/30 00:06:17;;;;;;;9.23;5.70;;;;;;;-139.48;100.00;61774.03;5000073;28;20061;-68
2021/06/30 00:09:01;;;;;;;17.92;6.43;;;;;;;-139.48;100.00;61774.03;5015139;28;20510;-68
2021/06/30 00:11:45;;;;;;;13.98;6.30;;;;;;;-139.48;100.00;61774.03;5015331;28;20137;-68
2021/06/30 00:14:29;;;;;;;10.63;5.63;;;;;;;-139.48;100.00;61774.03;5000024;28;20525;-66
2021/06/30 00:17:13;;;;;;;15.60;6.18;;;;;;;-139.48;100.00;61774.03;4999953;28;20103;-68
2021/06/30 00:19:56;;;;;;;9.10;4.95;;;;;;;-139.48;100.00;61774.03;5000139;28;20553;-68
2021/06/30 00:22:41;;;;;;;5.68;4.88;;;;;;;-139.48;100.00;61774.03;5014587;28;20201;-68
2021/06/30 00:25:24;;;;;;;9.40;4.90;;;;;;;-139.48;100.00;61774.03;4999714;28;20068;-68
2021/06/30 00:28:09;;;;;;;7.03;3.95;;;;;;;-139.48;100.00;61774.03;4999858;28;20057;-68
2021/06/30 00:30:53;;;;;;;8.90;3.53;;;;;;;-139.48;100.00;61774.03;4999788;28;20048;-68
2021/06/30 00:33:37;;;;;;;4.47;3.40;;;;;;;-139.48;100.00;61774.03;4999840;28;20096;-68
2021/06/30 00:36:21;;;;;;;10.57;3.13;;;;;;;-139.48;100.00;61774.03;5014404;28;20057;-68
2021/06/30 00:39:05;;;;;;;6.55;2.58;;;;;;;-139.48;100.00;61774.03;4999482;28;20080;-68
2021/06/30 00:41:49;;;;;;;12.52;2.90;;;;;;;-139.48;100.00;61774.03;4999679;28;20057;-68
2021/06/30 00:44:34;;;;;;;6.50;2.60;;;;;;;-139.48;100.00;61774.03;5014183;28;20049;-68
2021/06/30 00:47:19;;;;;;;5.85;2.70;;;;;;;-139.48;100.00;61774.03;5014184;28;20049;-68
2021/06/30 00:50:04;;;;;;;4.50;2.28;;;;;;;-139.48;100.00;61774.03;4985893;28;20052;-68
2021/06/30 00:52:48;;;;;;;9.77;2.45;;;;;;;-139.48;100.00;61774.03;4999744;28;20053;-68
2021/06/30 00:55:32;;;;;;;2.97;2.30;;;;;;;-139.48;100.00;61774.03;4999386;28;20096;-69
2021/06/30 00:58:16;;;;;;;6.28;2.33;;;;;;;-139.48;100.00;61774.03;4985651;28;20057;-69
2021/06/30 01:01:00;;;;;;;3.90;1.90;;;;;;;-139.48;100.00;61774.03;5014441;28;20048;-68
2021/06/30 01:03:44;;;;;;;3.90;2.08;;;;;;;-139.48;100.00;61774.03;4999315;28;20463;-69
2021/06/30 01:06:28;;;;;;;9.52;1.85;;;;;;;-139.48;100.00;61774.03;4985131;28;20060;-68
2021/06/30 01:09:12;;;;;;;5.00;1.67;;;;;;;-139.48;100.00;61774.03;5014070;28;20052;-69
2021/06/30 01:12:00;;;;;;;9.13;2.08;;;;;;;-139.48;100.00;61774.03;5014308;28;20131;-69
2021/06/30 01:14:44;;;;;;;3.80;1.65;;;;;;;-139.48;100.00;61774.03;4998811;28;20414;-69
2021/06/30 01:17:28;;;;;;;5.45;1.63;;;;;;;-139.48;100.00;61774.03;4998756;28;20133;-69
2021/06/30 01:20:12;;;;;;;5.05;1.45;;;;;;;-139.48;100.00;61774.03;4999078;28;20053;-69
2021/06/30 01:23:09;;;;;;;7.78;1.40;;;;;;;-139.48;100.00;61774.03;4999039;28;20053;-69
2021/06/30 01:25:54;;;;;;;5.82;1.60;;;;;;;-139.48;100.00;61774.03;4998615;28;20045;-69
2021/06/30 01:28:38;;;;;;;8.40;1.65;;;;;;;-139.48;100.00;61774.03;4998237;28;20048;-69
2021/06/30 01:31:22;;;;;;;6.13;1.58;;;;;;;-139.48;100.00;61774.03;4998941;28;20103;-69
2021/06/30 01:34:06;;;;;;;7.07;1.38;;;;;;;-139.48;100.00;61774.03;4998882;28;20518;-69
2021/06/30 01:36:55;;;;;;;6.05;1.30;;;;;;;-139.48;100.00;61774.03;4984730;28;20049;-69
2021/06/30 01:39:39;;;;;;;5.22;1.20;;;;;;;-139.48;100.00;61774.03;4998845;28;20521;-69
2021/06/30 01:42:23;;;;;;;5.65;1.30;;;;;;;-139.48;100.00;61774.03;4998820;28;20518;-69
2021/06/30 01:45:07;;;;;;;1.45;1.05;;;;;;;-139.48;100.00;61774.03;4999031;28;20041;-68
2021/06/30 01:47:51;;;;;;;1.15;1.00;;;;;;;-139.48;100.00;61774.03;5013230;28;20426;-68
2021/06/30 01:50:35;;;;;;;1.85;1.02;;;;;;;-139.48;100.00;61774.03;4998695;28;20498;-69
2021/06/30 01:53:20;;;;;;;4.95;1.20;;;;;;;-139.48;100.00;61774.03;4998698;28;20053;-69
2021/06/30 01:56:04;;;;;;;3.42;1.27;;;;;;;-139.48;100.00;61774.03;5013376;28;20411;-69
2021/06/30 01:58:56;;;;;;;3.17;1.00;;;;;;;-139.48;100.00;61774.03;4998452;28;20048;-69
2021/06/30 02:01:41;;;;;;;0.93;0.63;;;;;;;-139.48;100.00;61774.03;5013468;28;20064;-69
2021/06/30 02:04:25;;;;;;;3.72;1.13;;;;;;;-139.48;100.00;61774.03;4984852;28;20550;-68
2021/06/30 02:07:10;;;;;;;2.03;1.20;;;;;;;-139.48;100.00;61774.03;4998535;28;20064;-69
2021/06/30 02:09:54;;;;;;;4.80;1.25;;;;;;;-139.48;100.00;61774.03;4984759;28;20459;-69
2021/06/30 02:12:38;;;;;;;1.75;1.30;;;;;;;-139.48;100.00;61774.03;4998524;28;20053;-69
2021/06/30 02:15:24;;;;;;;3.10;1.00;;;;;;;-139.48;100.00;61774.03;4998251;28;20092;-69
2021/06/30 02:18:08;;;;;;;2.67;1.00;;;;;;;-139.48;100.00;61774.03;5013202;28;20060;-69
2021/06/30 02:20:52;;;;;;;7.30;1.08;;;;;;;-139.48;100.00;61774.03;4998439;28;20045;-68
2021/06/30 02:23:40;;;;;;;2.15;1.00;;;;;;;-139.48;100.00;61774.03;4986424;28;20048;-66
2021/06/30 02:26:24;;;;;;;4.40;1.23;;;;;;;-139.48;100.00;61774.03;5012894;28;20041;-69
2021/06/30 02:29:08;;;;;;;2.08;0.73;;;;;;;-139.48;100.00;61774.03;4998602;28;20056;-69
2021/06/30 02:31:52;;;;;;;1.25;1.00;;;;;;;-139.48;100.00;61774.03;5013203;28;20052;-69
2021/06/30 02:34:36;;;;;;;4.18;0.93;;;;;;;-139.48;100.00;61774.03;4984434;28;20518;-69
2021/06/30 02:37:19;;;;;;;5.38;1.10;;;;;;;-139.48;100.00;61774.03;4998239;28;20540;-69
2021/06/30 02:40:06;;;;;;;0.63;0.63;;;;;;;-139.48;100.00;61774.03;4999438;28;20184;-69
2021/06/30 02:42:51;;;;;;;1.10;0.82;;;;;;;-139.48;100.00;61774.03;5016719;28;20052;-69
2021/06/30 02:45:36;;;;;;;0.95;0.75;;;;;;;-139.48;100.00;61774.03;5001910;28;20077;-68
2021/06/30 02:48:20;;;;;;;1.83;0.93;;;;;;;-139.48;100.00;61774.03;5001523;28;20076;-69
2021/06/30 02:51:04;;;;;;;2.38;1.08;;;;;;;-139.48;100.00;61774.03;5002065;28;20048;-69
2021/06/30 02:53:48;;;;;;;1.10;1.00;;;;;;;-139.48;100.00;61774.03;5016320;28;20089;-69
2021/06/30 02:56:32;;;;;;;1.02;0.93;;;;;;;-139.48;100.00;61774.03;4987687;28;20049;-69
2021/06/30 02:59:16;;;;;;;3.85;0.98;;;;;;;-139.48;100.00;61774.03;5001630;28;20049;-68
2021/06/30 03:02:01;;;;;;;0.98;0.93;;;;;;;-139.48;100.00;61774.03;5016414;28;20052;-69
2021/06/30 03:04:45;;;;;;;2.53;1.20;;;;;;;-139.48;100.00;61774.03;5001527;28;20052;-69
2021/06/30 03:07:29;;;;;;;2.55;1.00;;;;;;;-139.48;100.00;61774.03;5001437;28;20104;-66
2021/06/30 03:10:13;;;;;;;1.30;1.20;;;;;;;-139.48;100.00;61774.03;5001374;28;20053;-69
2021/06/30 03:12:57;;;;;;;1.67;1.13;;;;;;;-139.48;100.00;61774.03;5016195;28;20411;-69
2021/06/30 03:15:41;;;;;;;1.20;1.10;;;;;;;-139.48;100.00;61774.03;5001245;28;20048;-69
2021/06/30 03:18:25;;;;;;;3.22;1.23;;;;;;;-139.48;100.00;61774.03;5016114;28;20566;-69
2021/06/30 03:21:10;;;;;;;4.03;1.48;;;;;;;-139.48;100.00;61774.03;5001453;28;20069;-69
2021/06/30 03:23:54;;;;;;;4.50;1.70;;;;;;;-139.48;100.00;61774.03;5015972;28;20053;-67
2021/06/30 03:26:38;;;;;;;10.80;1.95;;;;;;;-139.48;100.00;61774.03;5001250;28;20045;-69
2021/06/30 03:29:22;;;;;;;3.17;1.55;;;;;;;-139.48;100.00;61774.03;5015620;28;20517;-69
2021/06/30 03:32:06;;;;;;;2.13;1.42;;;;;;;-139.48;100.00;61774.03;5001024;28;20049;-68
2021/06/30 03:34:51;;;;;;;1.80;1.63;;;;;;;-139.48;100.00;61774.03;5015454;28;20570;-68
2021/06/30 03:37:35;;;;;;;1.60;1.45;;;;;;;-139.48;100.00;61774.03;5015717;28;20570;-67
2021/06/30 03:40:19;;;;;;;2.30;2.00;;;;;;;-139.48;100.00;61774.03;5000878;28;20092;-68
2021/06/30 03:43:04;;;;;;;2.65;2.45;;;;;;;-139.48;100.00;61774.03;5000780;28;20048;-68
2021/06/30 03:45:48;;;;;;;3.97;1.55;;;;;;;-139.48;100.00;61774.03;5015599;28;20543;-67
2021/06/30 03:48:31;;;;;;;4.28;1.90;;;;;;;-139.48;100.00;61774.03;5000698;28;20454;-68
2021/06/30 03:51:15;;;;;;;4.28;1.80;;;;;;;-139.48;100.00;61774.03;4999972;28;20049;-68
2021/06/30 03:53:59;;;;;;;4.60;1.88;;;;;;;-139.48;100.00;61774.03;5000655;28;20053;-68
2021/06/30 03:56:43;;;;;;;2.53;1.38;;;;;;;-139.48;100.00;61774.03;5000288;28;20561;-68
2021/06/30 03:59:27;;;;;;;1.88;1.67;;;;;;;-139.48;100.00;61774.03;5015402;28;20092;-68
2021/06/30 04:02:11;;;;;;;2.25;1.40;;;;;;;-139.48;100.00;61774.03;5015273;28;20049;-68
2021/06/30 04:04:55;;;;;;;1.90;1.30;;;;;;;-139.48;100.00;61774.03;5000503;28;20055;-68
2021/06/30 04:07:39;;;;;;;1.75;1.50;;;;;;;-139.48;100.00;61774.03;4986559;28;20308;-68
2021/06/30 04:10:23;;;;;;;2.20;1.10;;;;;;;-139.48;100.00;61774.03;5015127;28;20061;-67
2021/06/30 04:13:09;;;;;;;3.67;1.10;;;;;;;-139.48;100.00;61774.03;5000269;28;20053;-68
2021/06/30 04:15:52;;;;;;;2.90;1.00;;;;;;;-139.48;100.00;61774.03;4999823;28;20509;-68
2021/06/30 04:18:37;;;;;;;1.20;1.10;;;;;;;-139.48;100.00;61774.03;5015008;28;20052;-68
2021/06/30 04:21:21;;;;;;;1.30;1.20;;;;;;;-139.48;100.00;61774.03;4986455;28;20048;-68
2021/06/30 04:24:07;;;;;;;1.23;1.08;;;;;;;-139.48;100.00;61774.03;5000078;28;20177;-68
2021/06/30 04:26:51;;;;;;;6.75;1.13;;;;;;;-139.48;100.00;61774.03;5000156;28;20044;-69
2021/06/30 04:29:35;;;;;;;1.38;1.10;;;;;;;-139.48;100.00;61774.03;4999974;28;20056;-68
2021/06/30 04:32:19;;;;;;;1.38;0.98;;;;;;;-139.48;100.00;61774.03;4999966;28;20105;-68
2021/06/30 04:35:05;;;;;;;2.95;1.30;;;;;;;-139.48;100.00;61774.03;4999563;28;20104;-68
2021/06/30 04:37:48;;;;;;;1.02;1.00;;;;;;;-139.48;100.00;61774.03;5014263;28;20049;-68
2021/06/30 04:40:32;;;;;;;1.27;1.00;;;;;;;-139.48;100.00;61774.03;5014426;28;20075;-68
2021/06/30 04:43:16;;;;;;;1.63;1.10;;;;;;;-139.48;100.00;61774.03;4985966;28;20415;-68
2021/06/30 04:46:00;;;;;;;2.40;1.30;;;;;;;-139.48;100.00;61774.03;5014198;28;20049;-69
2021/06/30 04:48:44;;;;;;;1.35;0.93;;;;;;;-139.48;100.00;61774.03;4999654;28;20095;-69
2021/06/30 04:51:28;;;;;;;4.82;1.10;;;;;;;-139.48;100.00;61774.03;4999541;28;20130;-70
2021/06/30 04:54:12;;;;;;;1.35;1.10;;;;;;;-139.48;100.00;61774.03;5014117;28;20136;-69
2021/06/30 04:56:56;;;;;;;2.28;0.90;;;;;;;-139.48;100.00;61774.03;4999445;28;20045;-68
2021/06/30 04:59:40;;;;;;;2.28;0.90;;;;;;;-139.48;100.00;61774.03;5013922;28;20434;-69
2021/06/30 05:02:24;;;;;;;2.15;0.90;;;;;;;-139.48;100.00;61774.03;4998707;28;20426;-69
2021/06/30 05:05:08;;;;;;;5.28;1.30;;;;;;;-139.48;100.00;61774.03;5014259;28;20049;-69
2021/06/30 05:07:52;;;;;;;2.05;1.20;;;;;;;-139.48;100.00;61774.03;4999231;28;20108;-69
2021/06/30 05:10:39;;;;;;;2.78;1.17;;;;;;;-139.48;100.00;61774.03;4999070;28;20049;-69
2021/06/30 05:13:23;;;;;;;1.65;1.00;;;;;;;-139.48;100.00;61774.03;4999715;28;20056;-68
2021/06/30 05:16:09;;;;;;;1.85;0.98;;;;;;;-139.48;100.00;61774.03;4998883;28;20192;-69
2021/06/30 05:18:53;;;;;;;1.98;1.20;;;;;;;-139.48;100.00;61774.03;5013850;28;20134;-69
2021/06/30 05:21:37;;;;;;;1.10;0.93;;;;;;;-139.48;100.00;61774.03;4998885;28;20132;-69
2021/06/30 05:24:23;;;;;;;1.58;1.10;;;;;;;-139.48;100.00;61774.03;5013957;28;20041;-69
2021/06/30 05:27:07;;;;;;;3.28;1.00;;;;;;;-139.48;100.00;61774.03;4999389;28;20048;-69
2021/06/30 05:29:52;;;;;;;3.40;1.67;;;;;;;-139.48;100.00;61774.03;4998910;28;20131;-69
2021/06/30 05:32:36;;;;;;;2.63;1.05;;;;;;;-139.48;100.00;61774.03;4998700;28;20052;-69
2021/06/30 05:35:20;;;;;;;2.20;1.20;;;;;;;-139.48;100.00;61774.03;4998555;28;20057;-69
2021/06/30 05:38:05;;;;;;;1.10;1.00;;;;;;;-139.48;100.00;61774.03;4998615;28;20053;-67
2021/06/30 05:40:49;;;;;;;2.03;1.13;;;;;;;-139.48;100.00;61774.03;4998773;28;20100;-69
2021/06/30 05:43:36;;;;;;;2.15;1.25;;;;;;;-139.48;100.00;61774.03;4998853;28;20045;-69
2021/06/30 05:46:20;;;;;;;3.97;1.17;;;;;;;-139.48;100.00;61774.03;4985591;28;20100;-69
2021/06/30 05:49:05;;;;;;;3.00;1.33;;;;;;;-139.48;100.00;61774.03;4998628;28;20422;-69
2021/06/30 05:51:49;;;;;;;7.38;1.20;;;;;;;-139.48;100.00;61774.03;5013736;28;20052;-68
2021/06/30 05:54:33;;;;;;;1.10;1.00;;;;;;;-139.48;100.00;61774.03;4998746;28;20048;-68
2021/06/30 05:57:17;;;;;;;2.85;1.20;;;;;;;-139.48;100.00;61774.03;5013189;28;20121;-69
2021/06/30 06:00:04;;;;;;;2.65;1.17;;;;;;;-139.48;100.00;61774.03;4998728;28;20053;-69
2021/06/30 06:02:49;;;;;;;2.25;1.08;;;;;;;-139.48;100.00;61774.03;4998940;28;20049;-69
2021/06/30 06:05:33;;;;;;;0.90;0.90;;;;;;;-139.48;100.00;61774.03;4984698;28;20049;-69
2021/06/30 06:08:17;;;;;;;3.50;1.20;;;;;;;-139.48;100.00;61774.03;5013507;28;20518;-69
2021/06/30 06:11:01;;;;;;;1.02;1.00;;;;;;;-139.48;100.00;61774.03;5013148;28;20091;-68
2021/06/30 06:13:45;;;;;;;0.75;0.70;;;;;;;-139.48;100.00;61774.03;4985422;28;20095;-69
2021/06/30 06:16:29;;;;;;;0.80;0.80;;;;;;;-139.48;100.00;61774.03;5002350;28;20056;-69
2021/06/30 06:19:13;;;;;;;1.42;1.00;;;;;;;-139.48;100.00;61774.03;5017672;28;20108;-68
2021/06/30 06:21:58;;;;;;;1.15;0.90;;;;;;;-139.48;100.00;61774.03;5002424;28;20561;-69
2021/06/30 06:24:42;;;;;;;3.83;1.20;;;;;;;-139.48;100.00;61774.03;5002167;28;20139;-69
2021/06/30 06:27:27;;;;;;;1.50;1.10;;;;;;;-139.48;100.00;61774.03;5002190;28;20053;-69
2021/06/30 06:30:12;;;;;;;4.53;1.02;;;;;;;-139.48;100.00;61774.03;5017484;28;20127;-69
2021/06/30 06:32:56;;;;;;;1.40;1.00;;;;;;;-139.48;100.00;61774.03;4988318;28;20407;-69
2021/06/30 06:35:42;;;;;;;1.30;1.00;;;;;;;-139.48;100.00;61774.03;5016898;28;20053;-68
2021/06/30 06:38:27;;;;;;;2.67;1.42;;;;;;;-139.48;100.00;61774.03;4988338;28;20196;-69
2021/06/30 06:41:10;;;;;;;2.25;1.00;;;;;;;-139.48;100.00;61774.03;4988588;28;20411;-68
2021/06/30 06:43:54;;;;;;;2.17;1.10;;;;;;;-139.48;100.00;61774.03;5016590;28;20053;-67
2021/06/30 06:46:39;;;;;;;6.68;1.10;;;;;;;-139.48;100.00;61774.03;5016435;28;20535;-68
2021/06/30 06:49:23;;;;;;;2.78;1.05;;;;;;;-139.48;100.00;61774.03;5016434;28;20141;-68
2021/06/30 06:52:07;;;;;;;4.45;0.95;;;;;;;-139.48;100.00;61774.03;5016691;28;20136;-69
2021/06/30 06:54:51;;;;;;;1.52;0.90;;;;;;;-139.48;100.00;61774.03;5001875;28;20072;-69
2021/06/30 06:57:34;;;;;;;1.15;0.80;;;;;;;-139.48;100.00;61774.03;5001677;28;20049;-68
2021/06/30 07:00:19;;;;;;;6.03;1.00;;;;;;;-139.48;100.00;61774.03;5016230;28;20526;-69
2021/06/30 07:03:03;;;;;;;2.50;1.02;;;;;;;-139.48;100.00;61774.03;5016654;28;20561;-68
2021/06/30 07:05:47;;;;;;;2.88;1.00;;;;;;;-139.48;100.00;61774.03;5016086;28;20505;-68
2021/06/30 07:08:31;;;;;;;0.77;0.77;;;;;;;-139.48;100.00;61774.03;5016300;28;20100;-69
2021/06/30 07:11:15;;;;;;;2.10;0.80;;;;;;;-139.48;100.00;61774.03;5016277;28;20546;-69
2021/06/30 07:13:59;;;;;;;1.33;0.80;;;;;;;-139.48;100.00;61774.03;4987626;28;20053;-68
2021/06/30 07:16:43;;;;;;;3.05;0.77;;;;;;;-139.48;100.00;61774.03;5000917;28;20119;-69
2021/06/30 07:19:27;;;;;;;2.25;0.70;;;;;;;-139.48;100.00;61774.03;5001102;28;20053;-69
2021/06/30 07:22:11;;;;;;;0.98;0.55;;;;;;;-139.48;100.00;61774.03;5001231;28;20056;-68
2021/06/30 07:24:55;;;;;;;0.82;0.70;;;;;;;-139.48;100.00;61774.03;5001026;28;20053;-69
2021/06/30 07:27:39;;;;;;;;;;;;;;;-139.48;100.00;61774.03;5001169;28;20107;-69
2021/06/30 07:30:22;;;;;;;2.90;0.90;;;;;;;-139.48;100.00;61774.03;5015644;28;20053;-69
2021/06/30 07:33:06;;;;;;;1.33;1.02;;;;;;;-139.48;100.00;61774.03;5001077;28;20095;-69
2021/06/30 07:35:50;;;;;;;1.17;0.80;;;;;;;-139.48;100.00;61774.03;5015647;28;20048;-69
2021/06/30 07:38:34;;;;;;;3.08;1.00;;;;;;;-139.48;100.00;61774.03;4987197;28;20053;-69
2021/06/30 07:41:18;;;;;;;1.90;1.35;;;;;;;-139.48;100.00;61774.03;5015695;28;20108;-69
2021/06/30 07:44:03;;;;;;;1.35;1.25;;;;;;;-139.48;100.00;61774.03;5015642;28;20048;-68
2021/06/30 07:46:47;;;;;;;1.58;1.02;;;;;;;-139.48;100.00;61774.03;5000845;28;20099;-68
2021/06/30 07:49:31;;;;;;;2.00;1.20;;;;;;;-139.48;100.00;61774.03;5000819;28;20048;-69
2021/06/30 07:52:15;;;;;;;1.42;1.30;;;;;;;-139.48;100.00;61774.03;5015457;28;20099;-68
2021/06/30 07:55:00;;;;;;;2.05;1.70;;;;;;;-139.48;100.00;61774.03;5000363;28;20049;-67
2021/06/30 07:57:44;;;;;;;2.33;2.00;;;;;;;-139.48;100.00;61774.03;5000522;28;20096;-68
2021/06/30 08:00:28;;;;;;;4.95;2.47;;;;;;;-139.48;100.00;61774.03;5015333;28;20048;-69
2021/06/30 08:03:12;;;;;;;7.03;2.28;;;;;;;-139.48;100.00;61774.03;5015321;28;20052;-69
2021/06/30 08:05:56;;;;;;;4.00;2.25;;;;;;;-139.48;100.00;61774.03;5014956;28;20045;-69
2021/06/30 08:08:40;;;;;;;2.72;2.22;;;;;;;-139.48;100.00;61774.03;4986568;28;20411;-68
2021/06/30 08:11:24;;;;;;;3.35;1.75;;;;;;;-139.48;100.00;61774.03;5015036;28;20048;-68
2021/06/30 08:14:08;;;;;;;2.30;2.10;;;;;;;-139.48;100.00;61774.03;5014870;28;20073;-68
2021/06/30 08:16:52;;;;;;;3.72;1.90;;;;;;;-139.48;100.00;61774.03;4999790;28;20108;-68
2021/06/30 08:19:36;;;;;;;4.38;2.45;;;;;;;-139.48;100.00;61774.03;5000450;28;20044;-68
2021/06/30 08:22:20;;;;;;;3.08;2.25;;;;;;;-139.48;100.00;61774.03;4999982;28;20415;-68
2021/06/30 08:25:04;;;;;;;2.35;1.77;;;;;;;-139.48;100.00;61774.03;5034032;23;20084;-66
2021/06/30 08:27:49;;;;;;;1.90;1.70;;;;;;;-139.48;100.00;61774.03;5034513;28;20084;-67
2021/06/30 08:30:33;;;;;;;3.60;1.80;;;;;;;-139.48;100.00;61774.03;5034271;28;20056;-67
2021/06/30 08:33:17;;;;;;;3.83;2.17;;;;;;;-139.48;100.00;61774.03;5005387;28;20048;-67
2021/06/30 08:36:02;;;;;;;3.33;1.77;;;;;;;-139.48;100.00;61774.03;5038435;28;20052;-67
2021/06/30 08:38:46;;;;;;;2.83;2.05;;;;;;;-139.48;100.00;61774.03;5039036;28;20071;-67
2021/06/30 08:41:31;;;;;;;2.38;2.15;;;;;;;-139.48;100.00;61774.03;5039179;28;20079;-67
2021/06/30 08:44:14;;;;;;;2.72;2.50;;;;;;;-139.48;100.00;61774.03;5053840;28;20047;-65
2021/06/30 08:46:58;;;;;;;2.22;2.00;;;;;;;-139.48;100.00;61774.03;5038831;28;20555;-67
2021/06/30 08:49:43;;;;;;;2.33;2.13;;;;;;;-139.48;100.00;61774.03;5054127;28;20094;-66
2021/06/30 08:52:27;;;;;;;5.25;2.60;;;;;;;-139.48;100.00;61774.03;5025216;28;20070;-67
2021/06/30 08:55:12;;;;;;;2.85;2.65;;;;;;;-139.48;100.00;61774.03;5024806;28;20425;-67
2021/06/30 08:57:56;;;;;;;4.38;2.97;;;;;;;-139.48;100.00;61774.03;5024649;28;20048;-66
2021/06/30 09:00:41;;;;;;;3.67;2.70;;;;;;;-139.48;100.00;61774.03;5038763;28;20092;-65
2021/06/30 09:03:26;;;;;;;4.28;2.85;;;;;;;-139.48;100.00;61774.03;5038904;28;20099;-67
2021/06/30 09:06:13;;;;;;;2.35;2.15;;;;;;;-139.48;100.00;61774.03;5024688;28;20504;-66
2021/06/30 09:08:59;;;;;;;8.10;3.28;;;;;;;-139.48;100.00;61774.03;5039084;28;20052;-67
2021/06/30 09:11:54;;;;;;;3.75;2.33;;;;;;;-139.48;100.00;61774.03;5053738;28;20467;-66
2021/06/30 09:14:41;;;;;;;3.05;2.55;;;;;;;-139.48;100.00;61774.03;5038254;28;20079;-65
2021/06/30 09:17:27;;;;;;;3.40;2.50;;;;;;;-139.48;100.00;61774.03;5053543;28;20044;-67
2021/06/30 09:20:11;;;;;;;4.10;2.47;;;;;;;-139.48;100.00;61774.03;5053265;28;20468;-66
2021/06/30 09:22:57;;;;;;;2.20;2.00;;;;;;;-139.48;100.00;61774.03;5053464;28;20094;-67
2021/06/30 09:25:44;;;;;;;3.35;2.55;;;;;;;-139.48;100.00;61774.03;5038532;28;20083;-67
2021/06/30 09:28:29;;;;;;;3.08;2.33;;;;;;;-139.48;100.00;61774.03;5038493;28;20052;-67
2021/06/30 09:31:15;;;;;;;3.30;2.95;;;;;;;-139.48;100.00;61774.03;5038312;28;20047;-67
2021/06/30 09:33:59;;;;;;;2.72;1.77;;;;;;;-139.48;100.00;61774.03;5038708;28;20114;-67
2021/06/30 09:37:01;;;;;;;2.97;2.20;;;;;;;-139.48;100.00;61774.03;5038320;28;20102;-67
2021/06/30 09:39:51;;;;;;;2.03;1.92;;;;;;;-139.48;100.00;61774.03;5053027;28;20043;-67
2021/06/30 09:42:35;;;;;;;1.63;1.50;;;;;;;-139.48;100.00;61774.03;5053213;28;20178;-67
2021/06/30 09:45:20;;;;;;;3.63;1.60;;;;;;;-139.48;100.00;61774.03;5053000;28;20474;-67
2021/06/30 09:48:04;;;;;;;1.75;1.65;;;;;;;-139.48;100.00;61774.03;5038094;28;20472;-68
2021/06/30 09:50:48;;;;;;;3.55;1.50;;;;;;;-139.48;100.00;61774.03;5037848;28;20052;-67
2021/06/30 09:53:39;;;;;;;2.65;1.70;;;;;;;-139.48;100.00;61774.03;5038038;28;20118;-67
2021/06/30 09:56:36;;;;;;;1.88;1.58;;;;;;;-139.48;100.00;61774.03;5037992;28;20056;-67
2021/06/30 09:59:25;;;;;;;2.10;1.80;;;;;;;-139.48;100.00;61774.03;5025849;28;20151;-67
2021/06/30 10:02:11;;;;;;;2.17;1.80;;;;;;;-139.48;100.00;61774.03;5024189;28;20115;-67
2021/06/30 10:04:59;;;;;;;3.13;1.58;;;;;;;-139.48;100.00;61774.03;5023828;28;20055;-68
2021/06/30 10:07:43;;;;;;;1.45;1.35;;;;;;;-139.48;100.00;61774.03;5037974;28;20043;-67
2021/06/30 10:10:27;;;;;;;2.88;1.45;;;;;;;-139.48;100.00;61774.03;5053091;28;20122;-67
2021/06/30 10:13:11;;;;;;;1.90;1.75;;;;;;;-139.48;100.00;61774.03;5037853;28;20056;-67
2021/06/30 10:15:55;;;;;;;3.05;1.75;;;;;;;-139.48;100.00;61774.03;5052624;28;20503;-67
2021/06/30 10:18:39;;;;;;;1.73;1.55;;;;;;;-139.48;100.00;61774.03;5038220;28;20048;-66
2021/06/30 10:21:25;;;;;;;2.20;1.65;;;;;;;-139.48;100.00;61774.03;5037783;28;20095;-67
2021/06/30 10:24:10;;;;;;;2.95;1.70;;;;;;;-139.48;100.00;61774.03;5037408;28;20048;-67
2021/06/30 10:26:54;;;;;;;4.13;1.20;;;;;;;-139.48;100.00;61774.03;5037814;28;20401;-68
2021/06/30 10:29:41;;;;;;;1.45;1.20;;;;;;;-139.48;100.00;61774.03;5052888;28;20501;-67
2021/06/30 10:32:26;;;;;;;1.30;1.20;;;;;;;-139.48;100.00;61774.03;5052757;28;20071;-68
2021/06/30 10:35:17;;;;;;;1.30;1.20;;;;;;;-139.48;100.00;61774.03;5037147;28;20067;-68
2021/06/30 10:38:02;;;;;;;1.42;1.33;;;;;;;-139.48;100.00;61774.03;5037685;28;20056;-68
2021/06/30 10:40:46;;;;;;;1.25;1.15;;;;;;;-139.48;100.00;61774.03;5037401;28;20055;-68
2021/06/30 10:43:29;;;;;;;1.85;1.40;;;;;;;-139.48;100.00;61774.03;5023707;28;20051;-67
2021/06/30 10:46:24;;;;;;;1.42;1.33;;;;;;;-139.48;100.00;61774.03;5052504;28;20417;-68
2021/06/30 10:49:18;;;;;;;0.90;0.90;;;;;;;-139.48;100.00;61774.03;5037782;28;20083;-68
2021/06/30 10:52:03;;;;;;;3.28;1.20;;;;;;;-139.48;100.00;61774.03;5052424;28;20044;-67
2021/06/30 10:54:47;;;;;;;5.53;1.05;;;;;;;-139.48;100.00;61774.03;5037467;28;20044;-68
2021/06/30 10:57:31;;;;;;;3.47;1.20;;;;;;;-139.48;100.00;61774.03;5023686;28;20129;-68
2021/06/30 11:00:16;;;;;;;1.52;1.15;;;;;;;-139.48;100.00;61774.03;5023374;28;20103;-68
2021/06/30 11:03:38;;;;;;;1.92;1.38;;;;;;;-139.48;100.00;61774.03;5041120;28;20052;-68
2021/06/30 11:06:30;;;;;;;1.20;1.00;;;;;;;-139.48;100.00;61774.03;5041319;28;20063;-67
2021/06/30 11:09:24;;;;;;;1.23;1.10;;;;;;;-139.48;100.00;61774.03;5026848;28;20106;-68
2021/06/30 11:12:11;;;;;;;1.30;0.90;;;;;;;-139.48;100.00;61774.03;5055698;28;20052;-68
2021/06/30 11:14:55;;;;;;;1.45;1.20;;;;;;;-139.48;100.00;61774.03;5040888;28;20048;-68
2021/06/30 11:17:39;;;;;;;3.88;1.13;;;;;;;-139.48;100.00;61774.03;5026782;28;20090;-68
2021/06/30 11:20:52;;;;;;;1.52;0.90;;;;;;;-139.48;100.00;61774.03;5040412;28;20051;-68
2021/06/30 11:23:41;;;;;;;2.72;1.10;;;;;;;-139.48;100.00;61774.03;5040715;28;20083;-67
2021/06/30 11:26:34;;;;;;;1.30;1.20;;;;;;;-139.48;100.00;61774.03;5040337;28;20048;-68
2021/06/30 11:29:48;;;;;;;2.47;0.90;;;;;;;-139.48;100.00;61774.03;5040583;28;20183;-68
2021/06/30 11:32:32;;;;;;;1.15;1.05;;;;;;;-139.48;100.00;61774.03;5044722;28;20044;-68
2021/06/30 11:35:27;;;;;;;0.98;0.80;;;;;;;-139.48;100.00;61774.03;5055384;28;20055;-68
2021/06/30 11:38:23;;;;;;;1.20;0.98;;;;;;;-139.48;100.00;61774.03;5026150;28;20059;-69
2021/06/30 11:41:12;;;;;;;1.02;1.02;;;;;;;-139.48;100.00;61774.03;5055611;28;20179;-68
2021/06/30 11:43:56;;;;;;;0.85;0.85;;;;;;;-139.48;100.00;61774.03;5055153;28;20186;-68
2021/06/30 11:46:42;;;;;;;1.83;0.85;;;;;;;-139.48;100.00;61774.03;5026247;28;20107;-68
2021/06/30 11:49:26;;;;;;;0.90;0.90;;;;;;;-139.48;100.00;61774.03;5039969;28;20102;-67
2021/06/30 11:52:13;;;;;;;1.50;1.10;;;;;;;-139.48;100.00;61774.03;5055015;28;20064;-68
2021/06/30 11:54:58;;;;;;;0.98;0.98;;;;;;;-139.48;100.00;61774.03;5040007;28;20110;-68
2021/06/30 11:57:52;;;;;;;2.47;1.20;;;;;;;-139.48;100.00;61774.03;5054786;28;20402;-68
2021/06/30 12:00:42;;;;;;;1.75;1.10;;;;;;;-139.48;100.00;61774.03;5055099;28;20048;-67
2021/06/30 12:03:26;;;;;;;1.27;1.17;;;;;;;-139.48;100.00;61774.03;5040162;28;20052;-67
2021/06/30 12:06:26;;;;;;;1.10;1.00;;;;;;;-139.48;100.00;61774.03;5025905;28;20090;-68
2021/06/30 12:09:13;;;;;;;1.77;1.10;;;;;;;-139.48;100.00;61774.03;5039574;28;20047;-68
2021/06/30 12:12:02;;;;;;;1.23;1.00;;;;;;;-139.48;100.00;61774.03;5054207;28;20099;-68
2021/06/30 12:14:47;;;;;;;3.17;1.45;;;;;;;-139.48;100.00;61774.03;5039516;28;20109;-68
2021/06/30 12:17:31;;;;;;;2.47;1.30;;;;;;;-139.48;100.00;61774.03;5039778;28;20071;-68
2021/06/30 12:20:17;;;;;;;2.20;1.17;;;;;;;-139.48;100.00;61774.03;5039523;28;20063;-68
2021/06/30 12:23:03;;;;;;;1.63;1.33;;;;;;;-139.48;100.00;61774.03;5039175;28;20071;-68
2021/06/30 12:25:47;;;;;;;2.05;1.20;;;;;;;-139.48;100.00;61774.03;5054405;28;20064;-68
2021/06/30 12:28:31;;;;;;;1.33;1.23;;;;;;;-139.48;100.00;61774.03;5054617;28;20119;-69
2021/06/30 12:31:15;;;;;;;1.15;0.93;;;;;;;-139.48;100.00;61774.03;5054454;28;20128;-68